KBRG/BRG METAR and TAF weather

Enter ICAO airport designator
Station Type Date Time Source
KBRG METAR 2021/07/28 05:15 UTC NOAA

KBRG 280515Z AUTO 00000KT 10SM CLR 21/14 A3029 RMK AO2 T02100135


Station Type Date Time Source
KBRG Decoded METAR 2021/07/28 05:15 UTC NOAA

Station name not available
Jul 28, 2021 - 01:15 AM EDT / 2021.07.28 0515 UTC
Wind: Calm:0
Visibility: 10 mile(s):0
Sky conditions: clear
Temperature: 69.8 F (21.0 C)
Dew Point: 56.3 F (13.5 C)
Relative Humidity: 62%
Pressure (altimeter): 30.29 in. Hg (1025 hPa)
ob: KBRG 280515Z AUTO 00000KT 10SM CLR 21/14 A3029 RMK AO2 T02100135
cycle: 5

Station Type Date Time Source
KBRG TAF 2012/07/03 12:12 UTC NOAA

TAF SKBRG 031000Z 031212 VRB02KT 9999 FEW017 SCT080
TEMPO 0312/0317 11005KT VCTS - DZRAFEW015CB BKN070
TEMPO 0318/0323 TSRA FEW017CB BKN070
TEMPO 0400/0402 VCTS FEW020CB
TEMPO 0402/0406 -DZ SCT015CB
TEMPO 0408/0412 00000KT 5000 BCFG FEW005 TX23/0319Z TN10/0411Z

Example: see airport list